Time;durP1;ratioP1;P1;durP2;ratioP2;P2;SDS_P1;SDS_P2;PMS_P1;PMS_P2;Temp;Humidity;BMP_temperature;BMP_pressure;BME280_temperature;BME280_humidity;BME280_pressure;Samples;Min_cycle;Max_cycle;Signal;HPM_P1;HPM_P2
2023/04/25 00:01:46;;;;;;;5.40;2.30;;;;;;;12.73;69.89;98924.22;79238;1301;3012758;-59
2023/04/25 00:04:15;;;;;;;5.00;2.50;;;;;;;12.61;70.23;98923.36;78730;1295;3013064;-62
2023/04/25 00:06:42;;;;;;;4.20;2.30;;;;;;;12.43;70.82;98923.36;79355;1300;3019069;-64
2023/04/25 00:09:09;;;;;;;5.50;2.50;;;;;;;12.30;71.27;98927.14;79178;1300;3011525;-59
2023/04/25 00:11:37;;;;;;;5.50;2.60;;;;;;;12.07;72.39;98925.23;78010;1299;3049356;-61
2023/04/25 00:14:04;;;;;;;7.90;3.10;;;;;;;11.85;73.29;98924.73;79211;1298;3013178;-61
2023/04/25 00:16:33;;;;;;;7.10;2.90;;;;;;;11.80;73.63;98918.05;79273;1301;3011974;-59
2023/04/25 00:19:03;;;;;;;5.00;2.90;;;;;;;11.65;74.05;98916.92;78000;1301;3052830;-60
2023/04/25 00:21:31;;;;;;;7.40;3.20;;;;;;;11.66;73.98;98914.05;79386;1299;3013096;-59
2023/04/25 00:24:00;;;;;;;5.70;2.80;;;;;;;11.51;74.74;98911.73;78708;1296;3012218;-58
2023/04/25 00:26:27;;;;;;;5.10;3.20;;;;;;;11.46;74.88;98910.23;79252;1298;3011783;-58
2023/04/25 00:28:53;;;;;;;6.20;2.00;;;;;;;11.48;74.98;98911.16;79312;1301;3011628;-60
2023/04/25 00:31:21;;;;;;;5.80;2.40;;;;;;;11.92;73.88;98911.39;78080;1301;3028546;-58
2023/04/25 00:33:48;;;;;;;5.90;2.80;;;;;;;12.38;71.97;98907.05;79367;1301;3021072;-59
2023/04/25 00:36:14;;;;;;;6.90;2.80;;;;;;;12.48;71.04;98906.67;79186;1298;3011719;-58
2023/04/25 00:38:42;;;;;;;7.30;3.20;;;;;;;12.36;71.43;98903.88;78033;1300;3026152;-61
2023/04/25 00:41:09;;;;;;;6.40;3.50;;;;;;;12.35;71.22;98901.29;79217;1301;3014069;-59
2023/04/25 00:43:36;;;;;;;7.50;3.00;;;;;;;12.10;72.38;98899.31;79243;1301;3011867;-60
2023/04/25 00:46:04;;;;;;;6.20;2.80;;;;;;;11.95;72.81;98900.10;78019;1301;3050286;-58
2023/04/25 00:48:31;;;;;;;8.10;2.90;;;;;;;11.85;73.25;98894.73;79271;1301;3013506;-59
2023/04/25 00:50:58;;;;;;;6.10;2.90;;;;;;;11.76;73.52;98896.94;79160;1301;3011518;-60
2023/04/25 00:53:27;;;;;;;5.60;2.90;;;;;;;11.65;74.19;98892.55;78147;1300;3051766;-60
2023/04/25 00:55:54;;;;;;;9.50;3.00;;;;;;;11.55;74.67;98891.48;79207;1299;3011773;-58
2023/04/25 00:58:22;;;;;;;6.80;2.90;;;;;;;11.49;74.95;98889.84;79337;1296;3011688;-58
2023/04/25 01:00:51;;;;;;;7.70;3.60;;;;;;;11.45;75.24;98888.92;77831;1301;3050234;-59
2023/04/25 01:03:19;;;;;;;5.00;2.20;;;;;;;11.42;75.29;98886.80;79323;1300;3013691;-57
2023/04/25 01:05:48;;;;;;;4.70;2.20;;;;;;;11.96;73.81;98886.66;78004;1300;3029158;-61
2023/04/25 01:08:14;;;;;;;4.80;2.20;;;;;;;12.59;71.53;98884.40;79215;1301;3012638;-60
2023/04/25 01:10:41;;;;;;;6.00;2.80;;;;;;;12.76;70.94;98878.45;79224;1295;3013085;-61
2023/04/25 01:13:09;;;;;;;5.20;2.80;;;;;;;12.75;70.60;98880.33;77996;1301;3050032;-59
2023/04/25 01:15:36;;;;;;;4.60;3.00;;;;;;;12.56;70.48;98875.64;79359;1299;3012904;-60
2023/04/25 01:18:05;;;;;;;5.00;3.20;;;;;;;12.37;70.85;98879.73;79238;1300;3011931;-60
2023/04/25 01:20:33;;;;;;;6.60;2.80;;;;;;;12.10;72.09;98881.11;78164;1301;3053771;-59
2023/04/25 01:23:01;;;;;;;9.80;2.70;;;;;;;11.88;72.95;98881.01;79431;1300;3013463;-61
2023/04/25 01:25:30;;;;;;;6.00;3.20;;;;;;;11.75;73.60;98881.41;79247;1301;3011293;-58
2023/04/25 01:27:58;;;;;;;5.80;3.20;;;;;;;11.66;73.88;98882.28;78007;1301;3050399;-60
2023/04/25 01:30:26;;;;;;;6.40;3.40;;;;;;;11.61;74.10;98883.37;79258;1301;3013490;-61
2023/04/25 01:32:55;;;;;;;3.60;2.90;;;;;;;11.51;74.38;98881.95;79201;1299;3011945;-59
2023/04/25 01:35:23;;;;;;;5.00;3.40;;;;;;;11.42;75.01;98876.32;78027;1301;3052426;-58
2023/04/25 01:37:53;;;;;;;5.30;2.70;;;;;;;11.28;75.88;98873.66;79349;1295;3011623;-58
2023/04/25 01:40:22;;;;;;;5.50;2.90;;;;;;;11.72;75.00;98874.23;77981;1301;3028710;-60
2023/04/25 01:42:48;;;;;;;4.80;2.90;;;;;;;12.31;72.79;98872.30;79257;1298;3016243;-60
2023/04/25 01:45:15;;;;;;;6.40;3.90;;;;;;;12.38;71.82;98871.93;79170;1296;3011897;-59
2023/04/25 01:47:48;;;;;;;6.70;3.40;;;;;;;12.19;72.70;98869.32;77975;1301;3050337;-62
2023/04/25 01:50:16;;;;;;;5.90;3.70;;;;;;;12.02;73.01;98866.92;79206;1301;3013083;-59
2023/04/25 01:52:45;;;;;;;7.40;3.50;;;;;;;11.82;73.81;98864.38;78042;1301;3052707;-61
2023/04/25 01:55:12;;;;;;;6.90;3.70;;;;;;;11.70;74.38;98863.04;79333;1295;3013472;-57
2023/04/25 01:57:45;;;;;;;6.80;3.60;;;;;;;11.52;74.97;98857.71;77953;1301;3057446;-63
2023/04/25 02:00:12;;;;;;;7.70;3.80;;;;;;;11.29;76.24;98857.09;79232;1298;3012772;-59
2023/04/25 02:02:39;;;;;;;7.00;3.00;;;;;;;11.12;77.49;98853.80;79304;1295;3011572;-59
2023/04/25 02:05:15;;;;;;;;;;;;;;;11.00;78.39;98851.11;77986;1302;3052306;-60
2023/04/25 02:07:43;;;;;;;10.30;4.10;;;;;;;10.86;78.89;98848.58;79290;1300;3013058;-62
2023/04/25 02:10:09;;;;;;;5.00;2.30;;;;;;;10.78;79.38;98850.09;79291;1296;3011383;-59
2023/04/25 02:12:44;;;;;;;6.30;2.50;;;;;;;11.28;77.88;98846.79;78139;1299;3056463;-60
2023/04/25 02:15:38;;;;;;;10.00;3.00;;;;;;;11.79;75.44;98843.05;77973;1301;3050226;-61
2023/04/25 02:18:17;;;;;;;6.20;3.00;;;;;;;11.82;74.68;98841.42;78085;1295;3054368;-58
2023/04/25 02:20:44;;;;;;;4.30;2.70;;;;;;;11.72;74.73;98838.27;79433;1298;3012975;-59
2023/04/25 02:23:10;;;;;;;9.50;3.50;;;;;;;11.59;74.93;98835.91;79394;1295;3011869;-61
2023/04/25 02:25:38;;;;;;;7.90;3.90;;;;;;;11.54;75.17;98836.11;78146;1300;3028288;-59
2023/04/25 02:28:05;;;;;;;14.90;6.20;;;;;;;11.34;75.95;98839.17;79297;1296;3013498;-59
2023/04/25 02:30:31;;;;;;;17.60;7.10;;;;;;;11.27;76.27;98836.52;79335;1300;3013537;-61
2023/04/25 02:32:59;;;;;;;18.30;6.80;;;;;;;11.19;76.50;98836.26;78100;1301;3028419;-59
2023/04/25 02:35:26;;;;;;;16.10;7.80;;;;;;;11.08;77.20;98833.52;79360;1300;3013126;-62
2023/04/25 02:37:54;;;;;;;6.40;3.50;;;;;;;11.05;77.47;98831.46;79384;1301;3011686;-60
2023/04/25 02:40:22;;;;;;;10.30;3.50;;;;;;;11.54;76.36;98831.05;78106;1299;3068877;-58
2023/04/25 02:42:48;;;;;;;7.40;3.10;;;;;;;12.05;74.60;98833.20;79374;1296;3020467;-60
2023/04/25 02:45:15;;;;;;;7.50;4.20;;;;;;;12.18;73.65;98831.70;79371;1301;3011697;-61
2023/04/25 02:47:43;;;;;;;8.30;4.10;;;;;;;12.13;73.89;98831.20;78136;1295;3028357;-61
2023/04/25 02:50:09;;;;;;;14.30;4.90;;;;;;;11.96;74.04;98832.83;79285;1300;3013486;-60
2023/04/25 02:52:36;;;;;;;9.10;6.40;;;;;;;11.68;75.27;98830.14;79407;1298;3013652;-60
2023/04/25 02:55:10;;;;;;;9.10;5.80;;;;;;;11.43;76.52;98836.77;78163;1301;3068280;-62
2023/04/25 02:57:39;;;;;;;8.90;5.00;;;;;;;11.32;76.89;98832.48;79621;1296;3011943;-62
2023/04/25 03:00:07;;;;;;;7.40;4.70;;;;;;;11.24;77.31;98835.73;79345;1295;3011905;-62
2023/04/25 03:02:35;;;;;;;8.50;4.50;;;;;;;11.13;77.64;98835.08;78027;1299;3053816;-58
2023/04/25 03:05:03;;;;;;;6.80;3.00;;;;;;;11.02;78.16;98835.52;79272;1301;3020524;-60
2023/04/25 03:07:30;;;;;;;5.20;2.90;;;;;;;11.45;77.48;98837.14;79374;1300;3012901;-59
2023/04/25 03:09:58;;;;;;;9.10;3.20;;;;;;;12.08;74.78;98835.45;78175;1295;3069275;-61
2023/04/25 03:12:24;;;;;;;6.30;3.40;;;;;;;12.26;73.40;98834.42;79248;1296;3020915;-61
2023/04/25 03:14:51;;;;;;;9.60;3.50;;;;;;;12.25;72.92;98838.05;79379;1296;3011702;-58
2023/04/25 03:17:19;;;;;;;6.90;3.40;;;;;;;12.04;73.39;98843.48;78066;1301;3028502;-61
2023/04/25 03:19:45;;;;;;;7.70;3.40;;;;;;;11.88;73.79;98842.02;79371;1300;3013652;-61
2023/04/25 03:22:12;;;;;;;7.90;3.70;;;;;;;11.72;74.59;98842.53;79475;1301;3013141;-60
2023/04/25 03:24:40;;;;;;;9.30;3.70;;;;;;;11.55;75.29;98839.93;78206;1301;3026074;-58
2023/04/25 03:27:07;;;;;;;7.10;3.70;;;;;;;11.49;75.71;98848.08;79417;1295;3013060;-61
2023/04/25 03:29:33;;;;;;;8.60;3.40;;;;;;;11.48;75.73;98855.16;79317;1294;3011654;-60
2023/04/25 03:32:04;;;;;;;10.50;3.80;;;;;;;11.43;75.77;98855.69;78211;1295;3052773;-59
2023/04/25 03:34:30;;;;;;;6.30;2.40;;;;;;;11.42;75.92;98853.83;79240;1309;3013648;-62
2023/04/25 03:36:57;;;;;;;7.60;2.90;;;;;;;11.94;74.55;98851.24;79281;1301;3012917;-64
2023/04/25 03:39:25;;;;;;;6.50;3.20;;;;;;;12.55;72.74;98849.88;78020;1301;3027200;-61
2023/04/25 03:41:52;;;;;;;8.90;3.00;;;;;;;12.66;71.42;98852.52;79422;1300;3013005;-60
2023/04/25 03:44:19;;;;;;;8.70;3.60;;;;;;;12.63;71.50;98848.06;79376;1296;3013212;-60
2023/04/25 03:46:47;;;;;;;7.90;4.20;;;;;;;12.52;71.63;98846.40;78276;1298;3053442;-60
2023/04/25 03:49:14;;;;;;;20.70;4.80;;;;;;;12.42;71.95;98842.16;79378;1302;3013515;-60
2023/04/25 03:52:02;;;;;;;13.10;5.80;;;;;;;12.32;72.63;98842.20;78227;1301;3052922;-59
2023/04/25 03:54:33;;;;;;;21.20;8.00;;;;;;;12.24;72.80;98841.05;79375;1301;3013191;-60
2023/04/25 03:57:17;;;;;;;25.00;9.40;;;;;;;12.15;73.16;98842.30;78196;1301;3051409;-61
2023/04/25 03:59:44;;;;;;;28.80;9.60;;;;;;;12.06;73.62;98844.91;79336;1295;3013233;-61
2023/04/25 04:02:12;;;;;;;13.60;6.60;;;;;;;12.00;74.46;98843.56;79343;1302;3012067;-64
2023/04/25 04:04:40;;;;;;;8.40;5.60;;;;;;;11.91;75.31;98838.65;78099;1300;3050372;-61
2023/04/25 04:07:10;;;;;;;7.00;3.20;;;;;;;11.87;75.42;98838.02;79226;1300;3013352;-60
2023/04/25 04:09:41;;;;;;;8.50;4.40;;;;;;;12.45;73.61;98830.31;78301;1301;3052444;-59
2023/04/25 04:12:11;;;;;;;9.80;4.70;;;;;;;13.04;71.18;98828.23;79237;1296;3012809;-60
2023/04/25 04:14:41;;;;;;;9.40;4.70;;;;;;;13.17;70.36;98833.38;78183;1298;3051470;-58
2023/04/25 04:17:07;;;;;;;7.30;4.40;;;;;;;13.10;70.53;98832.88;79237;1300;3013327;-61
2023/04/25 04:19:34;;;;;;;8.20;4.50;;;;;;;12.98;71.41;98828.89;79261;1301;3012916;-59
2023/04/25 04:22:10;;;;;;;10.90;4.90;;;;;;;12.83;71.94;98827.64;78030;1300;3049925;-59
2023/04/25 04:24:37;;;;;;;8.40;5.30;;;;;;;12.68;72.35;98831.45;79381;1301;3012829;-60
2023/04/25 04:27:10;;;;;;;11.60;5.10;;;;;;;12.60;72.76;98827.56;78694;1302;3011846;-59
2023/04/25 04:29:45;;;;;;;10.00;5.20;;;;;;;12.55;73.08;98829.55;78098;1301;3069085;-60
2023/04/25 04:32:23;;;;;;;6.30;4.80;;;;;;;12.48;73.25;98827.82;78093;1300;3052439;-60
2023/04/25 04:34:50;;;;;;;7.30;5.30;;;;;;;12.42;73.85;98827.55;79267;1296;3013379;-59
2023/04/25 04:37:21;;;;;;;9.00;4.90;;;;;;;12.37;74.70;98824.61;78844;1301;3013234;-61
2023/04/25 04:39:48;;;;;;;8.10;5.00;;;;;;;12.36;74.58;98830.27;79563;1296;3013019;-62
2023/04/25 04:42:26;;;;;;;9.20;2.90;;;;;;;12.39;74.45;98826.73;78311;1301;3051852;-58
2023/04/25 04:45:23;;;;;;;7.70;3.30;;;;;;;13.17;71.54;98826.02;77754;1307;3053261;-57
2023/04/25 04:48:11;;;;;;;7.90;3.90;;;;;;;13.68;69.27;98827.25;78097;1301;3069518;-60
2023/04/25 04:50:58;;;;;;;11.70;4.40;;;;;;;13.75;68.65;98827.40;78119;1302;3051417;-58
2023/04/25 04:53:45;;;;;;;8.70;4.50;;;;;;;13.57;68.82;98827.65;78165;1300;3057560;-59
2023/04/25 04:56:38;;;;;;;8.60;4.80;;;;;;;13.37;69.35;98827.89;77893;1301;3049388;-57
2023/04/25 04:59:23;;;;;;;12.80;5.60;;;;;;;13.23;69.76;98822.52;77492;1298;3054221;-60
2023/04/25 05:02:06;;;;;;;10.50;4.90;;;;;;;13.08;70.56;98825.96;78116;1298;3052748;-58
2023/04/25 05:04:47;;;;;;;9.90;5.10;;;;;;;12.95;70.99;98822.69;77994;1301;3055489;-59
2023/04/25 05:07:34;;;;;;;8.70;4.80;;;;;;;12.95;71.06;98823.05;78145;1301;3069548;-59
2023/04/25 05:10:21;;;;;;;17.20;5.50;;;;;;;12.87;71.72;98820.85;78202;1299;3051863;-59
2023/04/25 05:13:09;;;;;;;10.50;5.90;;;;;;;12.81;71.98;98814.33;78067;1295;3056709;-59
2023/04/25 05:15:58;;;;;;;15.40;7.00;;;;;;;12.86;71.70;98816.88;78103;1301;3049839;-57
2023/04/25 05:18:38;;;;;;;13.50;6.50;;;;;;;12.90;71.42;98809.20;78195;1295;3053793;-59
2023/04/25 05:21:10;;;;;;;18.50;7.60;;;;;;;13.01;70.83;98808.50;79311;1301;3011982;-59
2023/04/25 05:23:57;;;;;;;18.50;8.20;;;;;;;13.03;70.63;98810.06;78177;1300;3052559;-57
2023/04/25 05:26:44;;;;;;;30.20;10.10;;;;;;;12.97;70.80;98807.40;78304;1314;3054164;-60
2023/04/25 05:29:32;;;;;;;19.70;9.10;;;;;;;13.03;70.55;98806.93;77881;1305;3069328;-58
2023/04/25 05:32:19;;;;;;;21.40;9.30;;;;;;;13.14;70.29;98806.84;78109;1298;3050971;-58
2023/04/25 05:34:47;;;;;;;17.60;9.80;;;;;;;13.14;70.57;98809.19;79386;1297;3013478;-56
2023/04/25 05:37:26;;;;;;;19.70;10.10;;;;;;;13.21;70.27;98806.86;78075;1301;3050056;-59
2023/04/25 05:40:06;;;;;;;18.80;9.00;;;;;;;13.29;70.50;98806.04;78829;1295;3011656;-59
2023/04/25 05:42:53;;;;;;;20.20;10.30;;;;;;;13.22;70.59;98807.09;78189;1299;3053626;-59
2023/04/25 05:45:22;;;;;;;21.30;10.60;;;;;;;13.25;70.54;98805.79;79412;1301;3014301;-58
2023/04/25 05:48:13;;;;;;;21.80;7.00;;;;;;;13.22;70.85;98808.53;78192;1298;3052859;-57
2023/04/25 05:50:53;;;;;;;19.00;7.80;;;;;;;13.92;68.51;98805.04;78125;1301;3053260;-59
2023/04/25 05:53:40;;;;;;;20.90;9.10;;;;;;;14.54;66.16;98809.25;78211;1301;3068955;-59
2023/04/25 05:56:07;;;;;;;25.70;10.30;;;;;;;14.78;65.23;98801.38;79417;1300;3013917;-59
2023/04/25 05:58:34;;;;;;;19.20;9.40;;;;;;;14.81;65.06;98805.84;79463;1295;3012101;-58
2023/04/25 06:01:02;;;;;;;26.30;9.20;;;;;;;14.77;65.41;98800.20;78353;1300;3052396;-59
2023/04/25 06:03:29;;;;;;;20.20;10.80;;;;;;;14.62;65.85;98803.39;79321;1309;3014459;-58
2023/04/25 06:05:57;;;;;;;24.50;11.00;;;;;;;14.55;65.90;98803.53;79422;1300;3012946;-58
2023/04/25 06:08:26;;;;;;;24.20;12.00;;;;;;;14.48;66.04;98803.23;78346;1294;3069009;-60
2023/04/25 06:10:52;;;;;;;24.80;11.90;;;;;;;14.42;66.29;98804.61;79411;1295;3018496;-58
2023/04/25 06:13:19;;;;;;;25.60;11.90;;;;;;;14.36;66.84;98804.64;79420;1300;3013244;-59
2023/04/25 06:15:47;;;;;;;29.40;13.20;;;;;;;14.38;66.78;98803.18;78197;1299;3028292;-58
2023/04/25 06:18:13;;;;;;;31.80;14.00;;;;;;;14.29;66.79;98802.25;79451;1298;3020931;-58
2023/04/25 06:20:40;;;;;;;31.80;14.00;;;;;;;14.36;66.78;98803.60;79676;1298;3011846;-59
2023/04/25 06:23:08;;;;;;;23.90;13.20;;;;;;;14.46;65.92;98807.26;78467;1295;3026760;-60
2023/04/25 06:25:46;;;;;;;25.30;12.00;;;;;;;14.50;66.24;98803.71;78135;1296;3051810;-59
2023/04/25 06:28:13;;;;;;;26.30;14.10;;;;;;;14.53;66.08;98805.09;79467;1296;3013356;-59
2023/04/25 06:30:40;;;;;;;32.80;14.60;;;;;;;14.50;65.89;98806.92;79468;1301;3011437;-58
2023/04/25 06:33:11;;;;;;;36.50;15.50;;;;;;;14.49;65.88;98808.08;78147;1301;3050022;-60
2023/04/25 06:35:38;;;;;;;37.90;16.00;;;;;;;14.52;65.61;98807.64;79258;1301;3018524;-55
2023/04/25 06:38:04;;;;;;;29.80;16.50;;;;;;;14.57;65.47;98807.69;79377;1297;3013352;-61
2023/04/25 06:40:34;;;;;;;34.30;16.20;;;;;;;14.64;65.35;98799.60;78334;1301;3052105;-62
2023/04/25 06:43:01;;;;;;;30.20;14.90;;;;;;;14.70;65.14;98797.31;79806;1301;3012879;-59
2023/04/25 06:46:00;;;;;;;27.80;13.10;;;;;;;14.78;64.76;98791.52;77935;1298;3053847;-59
2023/04/25 06:48:28;;;;;;;27.60;11.50;;;;;;;14.86;65.40;98798.73;79534;1300;3013320;-62
2023/04/25 06:50:57;;;;;;;22.90;11.00;;;;;;;14.92;65.80;98796.88;78799;1301;3013314;-63
2023/04/25 06:53:23;;;;;;;30.00;10.90;;;;;;;14.92;66.12;98799.22;79466;1301;3018718;-60
2023/04/25 06:55:55;;;;;;;25.60;13.00;;;;;;;14.96;65.20;98795.89;78079;1298;3052297;-59
2023/04/25 06:58:23;;;;;;;21.00;11.30;;;;;;;15.04;64.88;98800.85;79507;1295;3013300;-61
2023/04/25 07:00:50;;;;;;;27.10;11.90;;;;;;;15.06;65.01;98799.23;79422;1298;3011287;-62
2023/04/25 07:03:19;;;;;;;19.10;10.50;;;;;;;15.10;65.24;98801.46;78402;1302;3052496;-60
2023/04/25 07:05:45;;;;;;;21.00;9.60;;;;;;;15.21;65.27;98807.52;79902;1295;3013368;-61
2023/04/25 07:08:12;;;;;;;19.30;8.40;;;;;;;15.25;66.22;98808.80;79310;1295;3011742;-62
2023/04/25 07:10:40;;;;;;;15.00;7.80;;;;;;;15.31;66.46;98810.38;78168;1301;3051718;-61
2023/04/25 07:13:07;;;;;;;15.80;9.00;;;;;;;15.31;66.70;98810.19;79449;1296;3012713;-59
2023/04/25 07:15:34;;;;;;;16.00;9.40;;;;;;;15.26;66.77;98812.61;79312;1295;3012805;-66
2023/04/25 07:18:03;;;;;;;20.00;8.50;;;;;;;15.33;66.51;98809.98;78215;1301;3049449;-60
2023/04/25 07:20:30;;;;;;;25.50;11.00;;;;;;;15.33;66.98;98811.27;79164;1301;3013268;-61
2023/04/25 07:22:57;;;;;;;19.10;11.40;;;;;;;15.36;66.42;98815.06;79211;1298;3013046;-58
2023/04/25 07:25:25;;;;;;;26.50;11.70;;;;;;;15.45;66.19;98812.25;78159;1298;3052314;-59
2023/04/25 07:27:52;;;;;;;34.80;14.90;;;;;;;15.50;65.95;98812.70;79456;1295;3013582;-59
2023/04/25 07:30:21;;;;;;;25.00;12.70;;;;;;;15.48;64.90;98810.05;79358;1295;3011948;-58
2023/04/25 07:32:50;;;;;;;35.60;14.10;;;;;;;15.54;64.74;98812.01;78048;1298;3049627;-58
2023/04/25 07:35:17;;;;;;;36.80;14.90;;;;;;;15.66;64.41;98814.75;79348;1301;3013568;-58
2023/04/25 07:37:44;;;;;;;36.80;13.40;;;;;;;15.76;63.62;98814.68;79308;1300;3013251;-59
2023/04/25 07:40:17;;;;;;;35.50;11.90;;;;;;;15.87;62.61;98817.95;78065;1301;3051876;-59
2023/04/25 07:42:46;;;;;;;26.80;10.20;;;;;;;15.95;61.80;98816.41;79225;1301;3011856;-58
2023/04/25 07:45:17;;;;;;;29.00;11.00;;;;;;;16.00;61.31;98815.58;78018;1300;3049084;-58
2023/04/25 07:47:44;;;;;;;22.60;10.50;;;;;;;16.08;60.74;98811.44;79188;1301;3018642;-59
2023/04/25 07:50:11;;;;;;;23.90;10.40;;;;;;;16.22;60.88;98806.97;79317;1300;3011571;-58
2023/04/25 07:52:40;;;;;;;33.90;12.00;;;;;;;16.26;61.09;98804.88;78058;1300;3053308;-59
2023/04/25 07:55:16;;;;;;;23.50;10.50;;;;;;;16.26;61.14;98804.58;78827;1299;3011616;-58
2023/04/25 07:57:54;;;;;;;22.90;10.00;;;;;;;16.31;61.14;98799.22;78147;1301;3069733;-58
2023/04/25 08:00:21;;;;;;;31.20;11.20;;;;;;;16.27;61.21;98800.81;79593;1295;3020787;-60
2023/04/25 08:02:50;;;;;;;24.90;10.40;;;;;;;16.32;60.71;98802.30;79421;1295;3011663;-60
2023/04/25 08:05:19;;;;;;;29.60;9.50;;;;;;;16.35;60.97;98799.51;78242;1295;3053191;-59
2023/04/25 08:07:48;;;;;;;18.00;8.20;;;;;;;16.40;60.47;98799.08;79490;1298;3012114;-57
2023/04/25 08:10:18;;;;;;;19.80;8.60;;;;;;;16.56;60.31;98800.02;78288;1299;3025867;-59
2023/04/25 08:12:44;;;;;;;20.60;7.00;;;;;;;16.69;59.91;98795.28;79446;1298;3013534;-59
2023/04/25 08:15:13;;;;;;;15.90;7.00;;;;;;;16.85;59.57;98793.17;79827;1300;3011434;-59
2023/04/25 08:17:43;;;;;;;17.10;6.50;;;;;;;17.03;59.73;98791.13;78202;1301;3056745;-61
2023/04/25 08:20:11;;;;;;;15.40;6.60;;;;;;;17.11;58.84;98792.76;79303;1295;3013449;-60
2023/04/25 08:22:40;;;;;;;14.80;5.60;;;;;;;17.18;58.71;98784.35;78835;1298;3011871;-59
2023/04/25 08:25:46;;;;;;;12.20;5.80;;;;;;;17.25;58.16;98784.45;77950;1303;3050985;-60
2023/04/25 08:28:14;;;;;;;16.30;6.80;;;;;;;17.35;57.94;98785.00;78739;1307;3013759;-59
2023/04/25 08:30:42;;;;;;;17.30;6.10;;;;;;;17.36;57.41;98778.80;79096;1301;3011648;-59
2023/04/25 08:33:11;;;;;;;16.60;6.20;;;;;;;17.38;57.21;98780.19;78022;1298;3051089;-57
2023/04/25 08:36:03;;;;;;;23.40;6.20;;;;;;;17.55;56.29;98777.80;77954;1301;3056918;-58
2023/04/25 08:38:31;;;;;;;15.60;5.10;;;;;;;17.57;55.67;98773.66;79300;1295;3011961;-58
2023/04/25 08:41:03;;;;;;;15.80;5.10;;;;;;;17.72;55.45;98772.56;78862;1297;3012447;-59
2023/04/25 08:43:32;;;;;;;12.80;5.10;;;;;;;17.71;54.62;98774.05;79297;1301;3011901;-59
2023/04/25 08:46:00;;;;;;;13.30;4.50;;;;;;;17.77;54.04;98773.13;78056;1298;3052513;-58
2023/04/25 08:48:40;;;;;;;19.60;4.80;;;;;;;17.89;54.02;98769.40;78226;1298;3052854;-61
2023/04/25 08:51:08;;;;;;;13.50;4.40;;;;;;;17.86;53.75;98768.11;79262;1301;3018810;-58
2023/04/25 08:53:34;;;;;;;13.50;3.90;;;;;;;17.90;52.63;98765.23;79254;1295;3012925;-61
2023/04/25 08:56:05;;;;;;;13.30;3.70;;;;;;;18.02;52.24;98767.92;78084;1300;3049504;-58
2023/04/25 08:58:35;;;;;;;12.30;3.50;;;;;;;18.10;51.05;98765.58;79465;1295;3013019;-57
2023/04/25 09:01:03;;;;;;;7.50;3.00;;;;;;;18.03;49.89;98762.39;78194;1301;3025632;-59
2023/04/25 09:03:34;;;;;;;5.30;2.40;;;;;;;18.04;49.02;98762.29;79303;1298;3012820;-59
2023/04/25 09:06:03;;;;;;;10.00;2.70;;;;;;;18.07;49.45;98761.24;78824;1297;3013075;-58
2023/04/25 09:08:30;;;;;;;9.20;3.20;;;;;;;18.12;49.23;98762.15;79123;1298;3013260;-59
2023/04/25 09:10:57;;;;;;;9.80;3.20;;;;;;;18.09;49.33;98758.23;79151;1301;3011861;-57
2023/04/25 09:13:26;;;;;;;5.60;3.00;;;;;;;18.21;49.19;98755.35;78041;1301;3025929;-58
2023/04/25 09:16:17;;;;;;;11.40;3.70;;;;;;;18.43;49.47;98753.45;78125;1296;3054835;-62
2023/04/25 09:19:05;;;;;;;7.10;2.80;;;;;;;18.47;49.61;98749.85;77847;1300;3050095;-59
2023/04/25 09:21:32;;;;;;;13.70;3.20;;;;;;;18.32;49.80;98742.04;79285;1301;3013627;-58
2023/04/25 09:23:59;;;;;;;6.10;2.80;;;;;;;18.22;49.89;98739.88;79119;1299;3011443;-59
2023/04/25 09:26:27;;;;;;;8.00;2.90;;;;;;;18.15;49.82;98743.81;78087;1299;3026053;-59
2023/04/25 09:29:05;;;;;;;11.90;3.70;;;;;;;18.03;50.22;98743.78;79314;1300;3013673;-58
2023/04/25 09:31:33;;;;;;;5.60;3.40;;;;;;;17.85;51.30;98748.41;78035;1301;3052758;-57
2023/04/25 09:34:01;;;;;;;5.70;3.30;;;;;;;17.78;51.71;98745.62;79325;1296;3013490;-59
2023/04/25 09:36:32;;;;;;;8.50;3.40;;;;;;;17.66;52.30;98746.11;79972;1295;3011353;-58
2023/04/25 09:39:03;;;;;;;10.30;3.50;;;;;;;17.65;52.94;98741.21;79288;1295;3014123;-56
2023/04/25 09:41:37;;;;;;;7.50;3.40;;;;;;;17.53;54.12;98742.10;78094;1298;3068938;-58
2023/04/25 09:44:04;;;;;;;8.70;3.80;;;;;;;17.43;54.52;98740.10;79445;1296;3013576;-59
2023/04/25 09:46:38;;;;;;;9.00;3.20;;;;;;;17.37;54.83;98740.52;78022;1300;3056970;-58
2023/04/25 09:49:08;;;;;;;15.20;3.50;;;;;;;17.34;55.50;98739.54;79308;1296;3013070;-60
2023/04/25 09:51:56;;;;;;;5.60;3.30;;;;;;;17.34;55.58;98739.77;78188;1300;3053172;-57
2023/04/25 09:54:25;;;;;;;8.40;3.50;;;;;;;17.34;55.74;98736.73;78078;1299;3050768;-59
2023/04/25 09:57:11;;;;;;;11.50;3.20;;;;;;;17.32;55.91;98733.78;78124;1302;3052618;-59
2023/04/25 09:59:43;;;;;;;5.60;3.30;;;;;;;17.32;56.07;98734.95;78008;1300;3052998;-58
2023/04/25 10:02:10;;;;;;;6.90;3.60;;;;;;;17.34;56.08;98732.86;79207;1301;3013009;-58
2023/04/25 10:04:39;;;;;;;7.70;3.60;;;;;;;17.29;55.88;98731.96;78046;1301;3026545;-59
2023/04/25 10:07:30;;;;;;;8.80;3.40;;;;;;;17.24;55.69;98732.23;77901;1302;3059029;-59
2023/04/25 10:10:04;;;;;;;9.20;4.00;;;;;;;17.25;55.39;98727.88;79329;1301;3012001;-57
2023/04/25 10:12:32;;;;;;;7.20;3.90;;;;;;;17.28;55.81;98725.84;77997;1298;3053887;-59
2023/04/25 10:15:00;;;;;;;14.60;4.80;;;;;;;17.31;55.76;98725.54;79345;1301;3013140;-58
2023/04/25 10:17:27;;;;;;;13.40;4.60;;;;;;;17.35;55.68;98725.88;79244;1295;3013165;-58
2023/04/25 10:19:56;;;;;;;16.30;5.60;;;;;;;17.40;55.46;98723.91;78151;1298;3068455;-58
2023/04/25 10:22:37;;;;;;;16.90;4.60;;;;;;;17.38;55.73;98725.86;79238;1299;3013779;-59
2023/04/25 10:25:06;;;;;;;12.90;5.20;;;;;;;17.41;55.23;98722.54;78187;1295;3049109;-58
2023/04/25 10:27:33;;;;;;;17.90;5.70;;;;;;;17.50;55.44;98723.05;79367;1296;3013649;-57
2023/04/25 10:30:06;;;;;;;15.50;5.20;;;;;;;17.53;54.83;98722.14;79386;1298;3012132;-57
2023/04/25 10:32:34;;;;;;;12.60;5.50;;;;;;;17.54;54.89;98722.66;78028;1298;3053424;-58
2023/04/25 10:35:11;;;;;;;15.70;5.10;;;;;;;17.57;55.10;98717.92;79250;1303;3019130;-58
2023/04/25 10:37:57;;;;;;;14.50;4.70;;;;;;;17.61;55.12;98719.63;78252;1301;3057116;-61
2023/04/25 10:40:25;;;;;;;16.90;5.00;;;;;;;17.69;54.23;98720.65;77998;1300;3049952;-60
2023/04/25 10:42:55;;;;;;;12.90;4.20;;;;;;;17.81;53.33;98716.41;79271;1298;3018697;-61
2023/04/25 10:45:23;;;;;;;14.90;4.80;;;;;;;17.91;52.86;98709.05;77983;1300;3051800;-60
2023/04/25 10:47:50;;;;;;;10.70;4.80;;;;;;;17.91;52.67;98713.58;79219;1301;3013093;-61
2023/04/25 10:50:17;;;;;;;14.90;4.70;;;;;;;18.01;52.34;98714.56;79318;1300;3012022;-61
2023/04/25 10:52:45;;;;;;;15.70;4.70;;;;;;;18.14;51.36;98709.70;78144;1300;3028109;-60
2023/04/25 10:55:11;;;;;;;9.20;4.50;;;;;;;18.18;51.50;98710.13;79311;1297;3019182;-59
2023/04/25 10:57:40;;;;;;;10.20;4.10;;;;;;;18.43;50.22;98710.51;79213;1297;3011813;-62
2023/04/25 11:00:16;;;;;;;13.60;4.30;;;;;;;18.62;49.44;98711.40;78052;1300;3053289;-61
2023/04/25 11:02:46;;;;;;;8.70;3.50;;;;;;;18.81;48.40;98712.60;78113;1295;3053083;-61
2023/04/25 11:05:36;;;;;;;12.20;4.50;;;;;;;19.00;47.27;98710.77;79444;1295;3013004;-62
2023/04/25 11:08:04;;;;;;;6.20;3.50;;;;;;;19.17;47.58;98706.63;77955;1301;3052021;-60
2023/04/25 11:10:31;;;;;;;7.30;3.70;;;;;;;19.19;47.09;98708.55;79135;1298;3013268;-60
2023/04/25 11:12:58;;;;;;;11.40;3.70;;;;;;;19.20;46.92;98707.39;79289;1295;3013922;-60
2023/04/25 11:15:26;;;;;;;8.60;3.80;;;;;;;19.36;46.78;98703.67;78061;1300;3050315;-60
2023/04/25 11:17:53;;;;;;;8.60;4.30;;;;;;;19.57;46.02;98700.65;79375;1299;3013491;-60
2023/04/25 11:20:21;;;;;;;12.80;3.90;;;;;;;19.76;45.61;98693.62;79432;1297;3013099;-60
2023/04/25 11:22:48;;;;;;;11.10;3.90;;;;;;;19.90;45.66;98688.70;78119;1301;3051260;-60
2023/04/25 11:25:16;;;;;;;12.10;3.30;;;;;;;20.23;44.82;98686.73;79487;1298;3011580;-59
2023/04/25 11:27:50;;;;;;;9.20;4.30;;;;;;;20.54;43.82;98682.41;79175;1299;3013663;-61
2023/04/25 11:30:18;;;;;;;11.40;4.50;;;;;;;20.65;42.98;98683.11;78084;1300;3050368;-60